Bartow, FL

3:15 PM EST en Diciembre 19, 2014 (GMT -0500)
Homeland | Change Station
CLOSE
Current Station
Estación meteorológica personal
Location: Florida, FL
Altura: 203 ft
Estaciones meteorológicas cercanas

Alt 203 ft 27.83 °N, 81.84 °W | Updated 4 minutes ago

Parcialmente nublado
Parcialmente nublado
74.2 ° F
Sensación térmica 77 ° F
N
1.9
Viento Variable Viento desde ENE
Gusts 1.9 mph

Hoy
Alta -- | Baja -- ° F
--% Posibilidad de precipitaciones
Ayer
Alta -- | Baja -- ° F
Precip. -- pul
7:13 AM 5:35 PM
Creciente menguante, 6% visible
Presión 30.07 pul
Visibilidad 10.0 Millas
Nubes Muy nublado 20000 ft
Índice de calor 77 ° F
Punto de rocío 48 ° F
Humedad 39%
Precipitaciones 0.00 pul
Espesor de la nieve No disponible.
UV 2 de una escala de 12
Polen 5.60 de una escala de 12
Calidad del aire No disponible.
Flu Activity No disponible.
METAR KBOW 191950Z VRB05KT 10SM BKN200 21/08 A3007

More Conditions Fewer Conditions

Presión 30.07 pul
Visibilidad 10.0 Millas
Nubes Muy nublado 20000 ft
Índice de calor 77 ° F
Punto de rocío 48 ° F
Humedad 39%
Precipitaciones 0.00 pul
Espesor de la nieve No disponible.
UV 2 de una escala de 12
Polen 5.60 de una escala de 12
Calidad del aire No disponible.
Flu Activity No disponible.
METAR KBOW 191950Z VRB05KT 10SM BKN200 21/08 A3007

More Conditions Fewer Conditions

10-Day Weather Forecast

Almanac

Astronomía

Dec. 19, 2014 Salida Puesta
Hora real
Crepúsculo civil
Crepúsculo náutico
Crepúsculo astronómico
Luna
Horas de luz
Horas de luz
Tomorrow will be .
, % of the Moon is Illuminated

Extremos de hoy

Máximos del estado Bajos del estado

Community

WunderPhotos

Upload Photos

1,779,048 ¡fotos cargadas!

WunderBlogs® & News

Nearby

Calidad del aire

  Calidad del aire Índice AQ Contaminante
Not available.

Grosos de nieve

Estación Profundido Altura

Actividad de terremotos

Ciudad Distance Mag. Tiempo y dato
Magnitud mínima muestra es 2,5.

Temperaturas de aguas costeras

Lugar Temperatura

Estaciones meteorológicas cercanas